Erbil International Airport
ORER : now visible

Airfield :











YOU CAN JOIN US ON...

 
LOGIN :

Register | Disclaimer

   EN    FR    IT 

 









Legend :    VFR   Marginal VFR   IFR   Intensive IFR   Very Intensive IFR
Visi :
Ceiling :
>= 8 km
>= 3000ft
5 to 8 km
1000 to 3000 ft
1500m to 5 km
500 to 1000 ft
800 to 1500m
200 to 500 ft
< 800m
< 200 ft
Symbols :   Thunderstorms  Fog  Heavy snow  Heavy precipitations  Wind > 20 kt






- Airport Elevation : 1341 ft
- IATA code : EBL


ORER - Erbil International

CURRENT METAR :
  • 020700Z 17006KT 140V220 8000 SCT030 16/12 Q1014 NOSIG

EXPIRED METARs :
  • 020600Z 18006KT 150V220 8000 SCT030 14/11 Q1014 NOSIG
  • 020500Z 20007KT 7000 SCT045 12/12 Q1013 NOSIG

TAF TAF ORER
Valid from the 02 at 06:00 until the 03 at 06:00 UTC


020400Z 0206/0306 17006KT 8000 NSC



MET'MAP, your aeronautical weather chart ! - Copyright ORBIFLY December 2007 - Disclaimer

ORBIFLY MET'MAP TEAM :

Programming & Development : Alexandra Zaïnal
Concept & original design : Baudouin d'Aumeries
Assistance for programming : Marc-Olivier Méhu
Technical & hardware support : Manuel Goepfert

Contact : metmap@orbifly.com




SOURCES & CREDITS :

   NOAA       Earth
Advisory